createdAt,value
2023-02-16T00:01:30.403Z,101099.13
2023-02-16T00:03:02.178Z,101100.97
2023-02-16T00:04:33.930Z,101099.97
2023-02-16T00:06:05.677Z,101083.19
2023-02-16T00:07:37.381Z,101078.69
2023-02-16T00:09:09.111Z,101077.88
2023-02-16T00:10:41.232Z,101075.16
2023-02-16T00:12:38.621Z,101076.09
2023-02-16T00:14:11.588Z,101077.88
2023-02-16T00:15:43.600Z,101073.44
2023-02-16T00:17:15.355Z,101071.63
2023-02-16T00:18:48.186Z,101071.72
2023-02-16T00:20:19.979Z,101076.03
2023-02-16T00:21:55.360Z,101079.59
2023-02-16T00:23:27.058Z,101086.69
2023-02-16T00:24:58.747Z,101091.03
2023-02-16T00:26:33.934Z,101088.38
2023-02-16T00:28:13.056Z,101087.53
2023-02-16T00:29:45.970Z,101083.97
2023-02-16T00:31:20.654Z,101088.31
2023-02-16T00:32:52.481Z,101079.47
2023-02-16T00:34:31.218Z,101084.69
2023-02-16T00:36:03.029Z,101078.47
2023-02-16T00:37:34.724Z,101075.81
2023-02-16T00:39:06.462Z,101080.19
2023-02-16T00:40:38.822Z,101079.31
2023-02-16T00:42:21.069Z,101083.78
2023-02-16T00:43:54.962Z,101085.53
2023-02-16T00:45:26.731Z,101082.97
2023-02-16T00:47:06.685Z,101078.00
2023-02-16T00:48:38.405Z,101077.88
2023-02-16T00:50:47.607Z,101078.88
2023-02-16T00:52:38.993Z,101072.78
2023-02-16T00:54:10.936Z,101084.09
2023-02-16T00:55:44.278Z,101075.38
2023-02-16T00:57:19.104Z,101075.38
2023-02-16T00:58:53.060Z,101075.31
2023-02-16T01:00:55.326Z,101074.50
2023-02-16T01:02:27.216Z,101074.44
2023-02-16T01:04:02.265Z,101075.34
2023-02-16T01:05:34.221Z,101075.38
2023-02-16T01:07:39.237Z,101079.03
2023-02-16T01:09:35.772Z,101073.69
2023-02-16T01:11:10.350Z,101068.31
2023-02-16T01:12:45.349Z,101071.84
2023-02-16T01:14:17.245Z,101072.72
2023-02-16T01:15:49.105Z,101073.56
2023-02-16T01:17:21.650Z,101067.47
2023-02-16T01:18:54.376Z,101070.06
2023-02-16T01:20:27.299Z,101062.13
2023-02-16T01:21:59.146Z,101069.22
2023-02-16T01:23:33.129Z,101062.31
2023-02-16T01:25:05.224Z,101054.31
2023-02-16T01:26:44.121Z,101062.25
2023-02-16T01:28:25.299Z,101057.06
2023-02-16T01:29:57.003Z,101061.38
2023-02-16T01:31:28.849Z,101063.16
2023-02-16T01:33:02.886Z,101059.59
2023-02-16T01:34:34.761Z,101056.03
2023-02-16T01:36:14.477Z,101058.69
2023-02-16T01:37:46.269Z,101051.69
2023-02-16T01:39:21.812Z,101055.22
2023-02-16T01:41:04.735Z,101055.22
2023-02-16T01:42:52.100Z,101051.72
2023-02-16T01:44:30.471Z,101064.91
2023-02-16T01:46:09.495Z,101064.03
2023-02-16T01:47:49.921Z,101067.50
2023-02-16T01:49:22.330Z,101067.50
2023-02-16T01:51:05.547Z,101061.41
2023-02-16T01:52:43.504Z,101065.00
2023-02-16T01:54:49.551Z,101060.66
2023-02-16T01:56:43.724Z,101049.22
2023-02-16T01:58:28.552Z,101050.06
2023-02-16T02:00:52.310Z,101043.00
2023-02-16T02:02:34.823Z,101044.84
2023-02-16T02:04:33.591Z,101044.03
2023-02-16T02:06:31.843Z,101044.06
2023-02-16T02:08:27.863Z,101045.03
2023-02-16T02:10:08.686Z,101044.19
2023-02-16T02:11:57.495Z,101039.88
2023-02-16T02:13:43.223Z,101038.13
2023-02-16T02:15:19.849Z,101038.06
2023-02-16T02:17:14.644Z,101036.28
2023-02-16T02:18:46.602Z,101040.66
2023-02-16T02:20:56.834Z,101039.81
2023-02-16T02:23:16.787Z,101038.94
2023-02-16T02:25:17.293Z,101051.25
2023-02-16T02:27:14.683Z,101039.88
2023-02-16T02:28:58.298Z,101042.56
2023-02-16T02:31:07.898Z,101032.03
2023-02-16T02:32:46.815Z,101035.63
2023-02-16T02:34:38.355Z,101033.03
2023-02-16T02:36:20.147Z,101025.94
2023-02-16T02:38:12.334Z,101027.75
2023-02-16T02:40:11.805Z,101038.31
2023-02-16T02:42:08.961Z,101037.41
2023-02-16T02:43:46.056Z,101045.28
2023-02-16T02:45:44.949Z,101047.19
2023-02-16T02:47:16.976Z,101049.72
2023-02-16T02:48:48.703Z,101037.41
2023-02-16T02:50:32.380Z,101028.66
2023-02-16T02:52:04.686Z,101029.47
2023-02-16T02:53:41.392Z,101031.31
2023-02-16T02:55:32.047Z,101023.38
2023-02-16T02:57:22.643Z,101027.81
2023-02-16T02:59:20.933Z,101035.78
2023-02-16T03:00:53.530Z,101032.25
2023-02-16T03:02:26.358Z,101027.81
2023-02-16T03:04:00.071Z,101028.72
2023-02-16T03:05:35.173Z,101030.50
2023-02-16T03:07:10.189Z,101027.88
2023-02-16T03:08:46.109Z,101032.28
2023-02-16T03:10:47.727Z,101038.50
2023-02-16T03:12:37.805Z,101042.00
2023-02-16T03:14:25.260Z,101042.00
2023-02-16T03:15:59.041Z,101041.97
2023-02-16T03:17:53.796Z,101034.16
2023-02-16T03:19:44.359Z,101041.22
2023-02-16T03:21:35.316Z,101038.50
2023-02-16T03:23:27.432Z,101035.91
2023-02-16T03:25:17.629Z,101049.09
2023-02-16T03:27:09.483Z,101044.72
2023-02-16T03:29:03.036Z,101037.72
2023-02-16T03:30:35.109Z,101038.63
2023-02-16T03:32:07.964Z,101038.50
2023-02-16T03:33:41.127Z,101041.22
2023-02-16T03:35:13.489Z,101051.81
2023-02-16T03:36:49.005Z,101052.72
2023-02-16T03:38:21.464Z,101054.44
2023-02-16T03:40:11.803Z,101048.28
2023-02-16T03:41:48.753Z,101051.88
2023-02-16T03:43:25.604Z,101043.94
2023-02-16T03:44:57.355Z,101040.47
2023-02-16T03:46:29.060Z,101046.63
2023-02-16T03:48:01.194Z,101041.41
2023-02-16T03:49:32.916Z,101041.41
2023-02-16T03:51:05.021Z,101040.53
2023-02-16T03:52:36.888Z,101045.81
2023-02-16T03:54:08.673Z,101044.09
2023-02-16T03:55:43.255Z,101037.94
2023-02-16T03:57:15.037Z,101039.69
2023-02-16T03:58:46.743Z,101035.28
2023-02-16T04:00:18.737Z,101037.97
2023-02-16T04:01:50.498Z,101038.00
2023-02-16T04:03:22.262Z,101037.09
2023-02-16T04:04:54.009Z,101047.66
2023-02-16T04:06:25.817Z,101038.88
2023-02-16T04:07:57.530Z,101043.34
2023-02-16T04:09:29.233Z,101044.25
2023-02-16T04:11:01.063Z,101042.50
2023-02-16T04:12:39.846Z,101035.53
2023-02-16T04:14:11.768Z,101031.22
2023-02-16T04:15:43.792Z,101039.16
2023-02-16T04:17:15.544Z,101035.72
2023-02-16T04:18:47.247Z,101037.50
2023-02-16T04:20:21.418Z,101044.56
2023-02-16T04:21:53.640Z,101032.22
2023-02-16T04:23:25.371Z,101030.47
2023-02-16T04:24:57.086Z,101023.41
2023-02-16T04:26:28.779Z,101036.56
2023-02-16T04:28:01.103Z,101044.44
2023-02-16T04:29:32.854Z,101034.72
2023-02-16T04:31:05.045Z,101025.88
2023-02-16T04:32:37.071Z,101028.50
2023-02-16T04:34:09.183Z,101031.97
2023-02-16T04:35:40.878Z,101022.28
2023-02-16T04:37:12.646Z,101024.03
2023-02-16T04:38:44.371Z,101024.91
2023-02-16T04:40:17.726Z,101013.47
2023-02-16T04:41:49.415Z,101021.41
2023-02-16T04:43:21.135Z,101020.47
2023-02-16T04:44:53.429Z,101012.59
2023-02-16T04:46:25.648Z,101020.53
2023-02-16T04:47:57.472Z,101024.97
2023-02-16T04:49:29.264Z,101031.97
2023-02-16T04:51:04.241Z,101025.81
2023-02-16T04:52:37.651Z,101023.16
2023-02-16T04:54:09.385Z,101028.47
2023-02-16T04:55:46.331Z,101020.59
2023-02-16T04:57:19.377Z,101030.25
2023-02-16T04:58:51.081Z,101035.50
2023-02-16T05:00:23.285Z,101023.13
2023-02-16T05:01:55.226Z,101021.41
2023-02-16T05:03:27.055Z,101026.69
2023-02-16T05:04:58.785Z,101029.41
2023-02-16T05:06:30.507Z,101032.91
2023-02-16T05:08:03.201Z,101032.03
2023-02-16T05:09:34.953Z,101028.50
2023-02-16T05:11:25.298Z,101022.31
2023-02-16T05:13:15.743Z,101029.41
2023-02-16T05:14:47.609Z,101039.03
2023-02-16T05:16:22.111Z,101035.47
2023-02-16T05:17:53.809Z,101040.78
2023-02-16T05:19:25.578Z,101037.22
2023-02-16T05:21:15.726Z,101038.06
2023-02-16T05:22:47.488Z,101041.63
2023-02-16T05:24:19.183Z,101036.28
2023-02-16T05:25:51.000Z,101040.72
2023-02-16T05:27:25.579Z,101035.41
2023-02-16T05:28:57.908Z,101040.72
2023-02-16T05:30:29.682Z,101038.97
2023-02-16T05:32:04.489Z,101041.63
2023-02-16T05:33:36.630Z,101031.97
2023-02-16T05:35:11.676Z,101038.13
2023-02-16T05:36:43.475Z,101042.56
2023-02-16T05:38:15.356Z,101033.81
2023-02-16T05:39:47.232Z,101042.66
2023-02-16T05:41:24.683Z,101042.69
2023-02-16T05:42:57.249Z,101040.06
2023-02-16T05:44:29.702Z,101050.72
2023-02-16T05:46:07.536Z,101042.84
2023-02-16T05:47:39.358Z,101037.59
2023-02-16T05:49:11.140Z,101042.94
2023-02-16T05:50:42.968Z,101037.72
2023-02-16T05:52:14.739Z,101040.41
2023-02-16T05:53:47.062Z,101043.06
2023-02-16T05:55:18.839Z,101045.75
2023-02-16T05:56:52.805Z,101049.31
2023-02-16T05:58:24.633Z,101050.22
2023-02-16T05:59:56.340Z,101053.78
2023-02-16T06:01:29.210Z,101056.50
2023-02-16T06:03:01.129Z,101050.34
2023-02-16T06:04:32.949Z,101050.44
2023-02-16T06:06:06.399Z,101047.81
2023-02-16T06:07:38.147Z,101039.97
2023-02-16T06:09:09.961Z,101051.41
2023-02-16T06:10:41.652Z,101048.81
2023-02-16T06:12:13.486Z,101048.81
2023-02-16T06:13:45.291Z,101048.81
2023-02-16T06:15:18.069Z,101049.72
2023-02-16T06:16:51.794Z,101047.94
2023-02-16T06:18:25.034Z,101052.38
2023-02-16T06:19:56.747Z,101052.38
2023-02-16T06:21:29.189Z,101049.72
2023-02-16T06:23:01.013Z,101046.22
2023-02-16T06:24:32.720Z,101044.44
2023-02-16T06:26:04.629Z,101050.59
2023-02-16T06:27:36.334Z,101045.31
2023-02-16T06:29:09.687Z,101040.88
2023-02-16T06:30:42.783Z,101051.44
2023-02-16T06:32:14.666Z,101049.69
2023-02-16T06:33:46.588Z,101050.53
2023-02-16T06:35:18.669Z,101054.03
2023-02-16T06:36:50.520Z,101049.59
2023-02-16T06:38:22.238Z,101050.50
2023-02-16T06:39:53.921Z,101057.56
2023-02-16T06:41:32.219Z,101051.34
2023-02-16T06:43:03.990Z,101056.63
2023-02-16T06:44:35.741Z,101047.78
2023-02-16T06:46:07.434Z,101047.78
2023-02-16T06:47:39.459Z,101047.75
2023-02-16T06:49:29.599Z,101039.75
2023-02-16T06:51:07.333Z,101049.47
2023-02-16T06:52:39.067Z,101038.84
2023-02-16T06:54:11.214Z,101042.34
2023-02-16T06:55:42.952Z,101046.72
2023-02-16T06:57:14.721Z,101050.22
2023-02-16T06:58:46.559Z,101041.34
2023-02-16T07:00:18.600Z,101048.34
2023-02-16T07:01:50.550Z,101049.16
2023-02-16T07:03:22.327Z,101042.94
2023-02-16T07:05:00.088Z,101044.63
2023-02-16T07:06:50.533Z,101042.78
2023-02-16T07:08:22.281Z,101043.66
2023-02-16T07:09:53.975Z,101030.31
2023-02-16T07:11:25.747Z,101030.25
2023-02-16T07:12:57.781Z,101029.31
2023-02-16T07:14:31.415Z,101029.22
2023-02-16T07:16:04.896Z,101029.16
2023-02-16T07:17:36.637Z,101029.09
2023-02-16T07:19:08.726Z,101029.00
2023-02-16T07:20:40.447Z,101029.81
2023-02-16T07:22:12.358Z,101033.28
2023-02-16T07:23:44.190Z,101038.50
2023-02-16T07:25:15.989Z,101036.66
2023-02-16T07:26:47.689Z,101047.19
2023-02-16T07:28:19.712Z,101049.75
2023-02-16T07:29:51.430Z,101056.75
2023-02-16T07:31:26.472Z,101054.03
2023-02-16T07:32:58.378Z,101055.75
2023-02-16T07:34:30.646Z,101059.25
2023-02-16T07:36:04.172Z,101059.19
2023-02-16T07:37:36.100Z,101062.66
2023-02-16T07:39:08.046Z,101064.34
2023-02-16T07:40:39.841Z,101057.28
2023-02-16T07:42:11.572Z,101054.56
2023-02-16T07:43:43.445Z,101057.16
2023-02-16T07:45:15.199Z,101058.81
2023-02-16T07:46:46.922Z,101061.38
2023-02-16T07:48:18.639Z,101048.94
2023-02-16T07:49:50.369Z,101048.88
2023-02-16T07:51:23.925Z,101047.88
2023-02-16T07:52:55.678Z,101048.66
2023-02-16T07:54:27.498Z,101051.25
2023-02-16T07:55:59.251Z,101049.34
2023-02-16T07:57:30.983Z,101049.28
2023-02-16T07:59:03.398Z,101041.25
2023-02-16T08:00:35.909Z,101050.78
2023-02-16T08:02:07.927Z,101048.06
2023-02-16T08:03:40.565Z,101049.72
2023-02-16T08:05:12.307Z,101046.94
2023-02-16T08:06:44.235Z,101043.31
2023-02-16T08:08:15.964Z,101040.53
2023-02-16T08:09:47.763Z,101045.72
2023-02-16T08:11:23.032Z,101050.88
2023-02-16T08:12:54.990Z,101048.94
2023-02-16T08:14:26.769Z,101041.69
2023-02-16T08:15:58.549Z,101047.69
2023-02-16T08:17:30.258Z,101052.81
2023-02-16T08:19:03.742Z,101042.84
2023-02-16T08:20:57.297Z,101038.22
2023-02-16T08:22:27.024Z,101036.31
2023-02-16T08:24:00.115Z,101037.72
2023-02-16T08:25:34.889Z,101033.91
2023-02-16T08:27:07.461Z,101039.91
2023-02-16T08:28:46.175Z,101044.03
2023-02-16T08:30:18.492Z,101043.84
2023-02-16T08:31:51.122Z,101041.81
2023-02-16T08:33:23.175Z,101043.31
2023-02-16T08:34:55.034Z,101047.44
2023-02-16T08:36:29.779Z,101035.72
2023-02-16T08:38:02.530Z,101043.34
2023-02-16T08:39:35.224Z,101042.13
2023-02-16T08:41:06.945Z,101042.69
2023-02-16T08:42:38.665Z,101035.28
2023-02-16T08:44:11.236Z,101035.75
2023-02-16T08:45:47.783Z,101038.03
2023-02-16T08:47:21.081Z,101031.41
2023-02-16T08:48:55.594Z,101031.09
2023-02-16T08:50:27.612Z,101025.34
2023-02-16T08:52:02.085Z,101017.88
2023-02-16T08:53:35.169Z,101028.16
2023-02-16T08:55:07.549Z,101027.72
2023-02-16T08:56:39.642Z,101032.72
2023-02-16T08:58:11.367Z,101025.19
2023-02-16T08:59:43.169Z,101029.25
2023-02-16T09:01:15.520Z,101028.03
2023-02-16T09:02:47.357Z,101032.03
2023-02-16T09:04:20.064Z,101019.25
2023-02-16T09:05:53.317Z,101013.56
2023-02-16T09:07:25.363Z,101014.91
2023-02-16T09:08:57.598Z,101017.16
2023-02-16T09:10:30.123Z,101014.13
2023-02-16T09:12:02.146Z,101018.94
2023-02-16T09:13:35.848Z,101015.91
2023-02-16T09:15:08.680Z,101002.97
2023-02-16T09:16:45.678Z,101006.97
2023-02-16T09:18:17.574Z,101010.81
2023-02-16T09:19:49.462Z,101005.84
2023-02-16T09:21:25.500Z,101013.38
2023-02-16T09:22:58.251Z,101012.91
2023-02-16T09:24:30.036Z,101007.09
2023-02-16T09:26:07.510Z,100995.13
2023-02-16T09:27:39.250Z,101007.03
2023-02-16T09:29:12.615Z,100998.59
2023-02-16T09:30:44.754Z,100992.03
2023-02-16T09:32:17.333Z,100997.91
2023-02-16T09:33:49.125Z,100997.59
2023-02-16T09:35:21.368Z,100998.19
2023-02-16T09:36:53.188Z,100997.94
2023-02-16T09:38:25.645Z,101005.69
2023-02-16T09:39:57.444Z,101001.00
2023-02-16T09:41:41.295Z,100997.38
2023-02-16T09:43:35.133Z,100996.38
2023-02-16T09:45:11.427Z,101006.94
2023-02-16T09:46:43.587Z,101008.66
2023-02-16T09:48:36.016Z,101003.41
2023-02-16T09:50:38.319Z,101006.84
2023-02-16T09:52:36.777Z,101004.13
2023-02-16T09:54:42.536Z,101009.59
2023-02-16T09:56:38.988Z,101019.28
2023-02-16T09:58:20.514Z,101017.53
2023-02-16T10:00:10.866Z,101018.34
2023-02-16T10:01:53.509Z,101021.81
2023-02-16T10:03:40.126Z,101021.63
2023-02-16T10:05:26.960Z,101021.59
2023-02-16T10:07:17.470Z,101015.38
2023-02-16T10:08:54.923Z,101015.06
2023-02-16T10:10:35.386Z,101018.53
2023-02-16T10:12:11.352Z,101007.53
2023-02-16T10:13:54.213Z,101010.91
2023-02-16T10:15:30.499Z,101012.41
2023-02-16T10:17:07.964Z,101018.34
2023-02-16T10:18:45.128Z,101022.53
2023-02-16T10:20:24.641Z,101020.31
2023-02-16T10:22:02.429Z,101014.66
2023-02-16T10:23:53.756Z,101015.19
2023-02-16T10:25:47.006Z,101014.72
2023-02-16T10:27:21.879Z,101005.28
2023-02-16T10:28:57.134Z,101003.94
2023-02-16T10:30:32.040Z,101004.47
2023-02-16T10:32:24.958Z,101004.22
2023-02-16T10:34:27.975Z,100993.97
2023-02-16T10:36:01.750Z,100997.09
2023-02-16T10:37:50.660Z,100993.16
2023-02-16T10:39:47.383Z,100999.81
2023-02-16T10:41:34.890Z,100986.03
2023-02-16T10:43:48.165Z,100987.84
2023-02-16T10:45:39.807Z,100982.00
2023-02-16T10:47:34.669Z,100987.34
2023-02-16T10:49:12.219Z,100989.22
2023-02-16T10:50:53.036Z,100984.50
2023-02-16T10:52:26.035Z,100980.34
2023-02-16T10:54:05.709Z,100978.09
2023-02-16T10:55:38.992Z,100977.56
2023-02-16T10:57:26.806Z,100976.75
2023-02-16T10:59:01.718Z,100974.97
2023-02-16T11:00:52.088Z,100971.75
2023-02-16T11:02:48.341Z,100969.00
2023-02-16T11:04:52.722Z,100969.59
2023-02-16T11:06:25.864Z,100975.88
2023-02-16T11:08:02.465Z,100977.75
2023-02-16T11:09:34.563Z,100974.28
2023-02-16T11:11:10.136Z,100969.09
2023-02-16T11:12:42.664Z,100964.00
2023-02-16T11:14:29.900Z,100965.09
2023-02-16T11:16:14.166Z,100957.88
2023-02-16T11:17:52.767Z,100965.09
2023-02-16T11:19:26.009Z,100963.47
2023-02-16T11:20:59.086Z,100956.63
2023-02-16T11:22:39.161Z,100959.50
2023-02-16T11:24:13.629Z,100956.19
2023-02-16T11:26:07.152Z,100960.00
2023-02-16T11:27:51.396Z,100939.47
2023-02-16T11:29:23.106Z,100942.50
2023-02-16T11:31:02.348Z,100936.94
2023-02-16T11:32:34.388Z,100935.91
2023-02-16T11:34:36.194Z,100939.56
2023-02-16T11:36:30.926Z,100926.09
2023-02-16T11:38:02.666Z,100930.59
2023-02-16T11:39:41.008Z,100931.00
2023-02-16T11:41:13.141Z,100928.47
2023-02-16T11:42:48.703Z,100927.09
2023-02-16T11:44:39.813Z,100932.00
2023-02-16T11:46:20.258Z,100918.50
2023-02-16T11:48:14.395Z,100924.38
2023-02-16T11:49:46.157Z,100924.44
2023-02-16T11:51:32.170Z,100915.75
2023-02-16T11:53:10.126Z,100931.22
2023-02-16T11:54:53.065Z,100927.13
2023-02-16T11:56:33.815Z,100924.72
2023-02-16T11:58:25.315Z,100920.88
2023-02-16T11:59:57.468Z,100920.47
2023-02-16T12:01:44.305Z,100914.50
2023-02-16T12:03:23.257Z,100924.69
2023-02-16T12:05:17.138Z,100918.13
2023-02-16T12:07:17.482Z,100918.44
2023-02-16T12:09:03.056Z,100918.59
2023-02-16T12:11:13.805Z,100910.91
2023-02-16T12:13:03.231Z,100910.06
2023-02-16T12:14:51.703Z,100910.38
2023-02-16T12:16:47.022Z,100902.38
2023-02-16T12:18:35.187Z,100903.56
2023-02-16T12:20:37.435Z,100899.53
2023-02-16T12:22:18.296Z,100890.84
2023-02-16T12:24:19.745Z,100895.25
2023-02-16T12:26:00.797Z,100893.84
2023-02-16T12:27:45.665Z,100891.25
2023-02-16T12:29:59.309Z,100893.25
2023-02-16T12:31:57.827Z,100898.97
2023-02-16T12:33:49.551Z,100883.81
2023-02-16T12:35:42.851Z,100886.81
2023-02-16T12:37:25.674Z,100894.09
2023-02-16T12:39:29.714Z,100889.97
2023-02-16T12:41:20.370Z,100878.38
2023-02-16T12:43:31.272Z,100875.63
2023-02-16T12:45:23.661Z,100880.78
2023-02-16T12:47:03.667Z,100873.75
2023-02-16T12:48:42.693Z,100872.34
2023-02-16T12:50:21.488Z,100877.59
2023-02-16T12:52:04.517Z,100868.56
2023-02-16T12:53:50.908Z,100879.22
2023-02-16T12:55:36.765Z,100876.47
2023-02-16T12:57:13.742Z,100871.44
2023-02-16T12:58:53.429Z,100872.72
2023-02-16T13:00:42.952Z,100878.84
2023-02-16T13:02:36.335Z,100871.53
2023-02-16T13:04:20.594Z,100865.63
2023-02-16T13:06:03.312Z,100872.47
2023-02-16T13:07:49.826Z,100867.84
2023-02-16T13:09:46.204Z,100860.38
2023-02-16T13:11:43.692Z,100865.09
2023-02-16T13:13:20.622Z,100864.78
2023-02-16T13:15:10.586Z,100858.28
2023-02-16T13:16:52.292Z,100849.81
2023-02-16T13:18:28.617Z,100854.75
2023-02-16T13:20:01.220Z,100855.16
2023-02-16T13:21:51.625Z,100849.66
2023-02-16T13:23:33.587Z,100847.47
2023-02-16T13:25:08.724Z,100854.16
2023-02-16T13:26:53.120Z,100851.84
2023-02-16T13:29:02.355Z,100846.34
2023-02-16T13:30:50.045Z,100843.75
2023-02-16T13:32:22.690Z,100844.28
2023-02-16T13:34:10.775Z,100836.66
2023-02-16T13:35:58.783Z,100846.31
2023-02-16T13:37:36.079Z,100838.31
2023-02-16T13:39:26.546Z,100833.28
2023-02-16T13:41:09.387Z,100837.84
2023-02-16T13:43:06.673Z,100840.94
2023-02-16T13:44:45.937Z,100842.06
2023-02-16T13:46:32.226Z,100842.41
2023-02-16T13:48:14.897Z,100839.84
2023-02-16T13:49:50.541Z,100835.44
2023-02-16T13:51:24.867Z,100840.09
2023-02-16T13:53:08.701Z,100836.53
2023-02-16T13:54:43.925Z,100838.41
2023-02-16T13:56:22.671Z,100836.66
2023-02-16T13:58:14.870Z,100837.66
2023-02-16T13:59:59.437Z,100833.94
2023-02-16T14:01:38.970Z,100846.25
2023-02-16T14:03:12.261Z,100846.13
2023-02-16T14:04:47.189Z,100840.59
2023-02-16T14:06:37.110Z,100837.63
2023-02-16T14:08:16.546Z,100846.09
2023-02-16T14:09:49.891Z,100847.31
2023-02-16T14:11:24.443Z,100853.91
2023-02-16T14:13:12.133Z,100849.09
2023-02-16T14:14:43.818Z,100852.75
2023-02-16T14:16:18.724Z,100850.50
2023-02-16T14:17:50.872Z,100863.38
2023-02-16T14:19:26.757Z,100856.72
2023-02-16T14:21:07.754Z,100858.31
2023-02-16T14:22:45.877Z,100856.09
2023-02-16T14:24:32.785Z,100852.38
2023-02-16T14:26:06.650Z,100861.84
2023-02-16T14:27:45.964Z,100856.53
2023-02-16T14:29:21.689Z,100856.00
2023-02-16T14:30:56.319Z,100857.00
2023-02-16T14:32:38.662Z,100857.84
2023-02-16T14:34:46.117Z,100855.41
2023-02-16T14:36:21.325Z,100856.75
2023-02-16T14:37:56.079Z,100852.31
2023-02-16T14:39:30.186Z,100848.88
2023-02-16T14:41:06.232Z,100853.44
2023-02-16T14:42:46.392Z,100860.72
2023-02-16T14:44:44.417Z,100851.09
2023-02-16T14:46:39.016Z,100860.25
2023-02-16T14:48:29.258Z,100846.44
2023-02-16T14:50:18.040Z,100852.84
2023-02-16T14:52:22.839Z,100860.09
2023-02-16T14:54:16.775Z,100857.75
2023-02-16T14:56:12.536Z,100851.44
2023-02-16T14:58:02.265Z,100851.06
2023-02-16T15:00:07.129Z,100847.34
2023-02-16T15:01:43.760Z,100849.81
2023-02-16T15:03:17.465Z,100851.78
2023-02-16T15:04:49.233Z,100848.34
2023-02-16T15:06:34.774Z,100853.28
2023-02-16T15:08:25.466Z,100856.69
2023-02-16T15:09:59.015Z,100846.69
2023-02-16T15:12:08.224Z,100855.09
2023-02-16T15:13:40.845Z,100852.50
2023-02-16T15:15:20.494Z,100844.91
2023-02-16T15:16:54.069Z,100839.88
2023-02-16T15:18:32.758Z,100844.94
2023-02-16T15:20:23.579Z,100836.03
2023-02-16T15:22:13.112Z,100832.38
2023-02-16T15:23:53.994Z,100834.88
2023-02-16T15:25:30.000Z,100839.47
2023-02-16T15:27:02.979Z,100830.53
2023-02-16T15:28:37.928Z,100827.81
2023-02-16T15:30:31.554Z,100840.16
2023-02-16T15:32:07.146Z,100832.53
2023-02-16T15:33:43.787Z,100837.22
2023-02-16T15:35:24.836Z,100832.19
2023-02-16T15:36:57.389Z,100831.31
2023-02-16T15:38:32.287Z,100831.44
2023-02-16T15:40:26.619Z,100828.56
2023-02-16T15:42:19.797Z,100834.28
2023-02-16T15:43:52.303Z,100828.97
2023-02-16T15:45:28.015Z,100832.72
2023-02-16T15:47:12.112Z,100842.34
2023-02-16T15:48:43.967Z,100835.03
2023-02-16T15:50:15.798Z,100837.06
2023-02-16T15:51:47.868Z,100836.25
2023-02-16T15:53:35.050Z,100834.00
2023-02-16T15:55:10.170Z,100834.69
2023-02-16T15:56:44.669Z,100835.69
2023-02-16T15:58:16.710Z,100841.94
2023-02-16T15:59:51.377Z,100831.19
2023-02-16T16:01:33.277Z,100836.56
2023-02-16T16:03:09.630Z,100836.69
2023-02-16T16:04:44.575Z,100827.75
2023-02-16T16:06:16.551Z,100828.59
2023-02-16T16:07:49.517Z,100829.41
2023-02-16T16:09:30.598Z,100829.56
2023-02-16T16:11:03.020Z,100829.47
2023-02-16T16:12:36.341Z,100831.25
2023-02-16T16:14:08.243Z,100831.94
2023-02-16T16:15:43.979Z,100836.41
2023-02-16T16:17:18.998Z,100828.94
2023-02-16T16:18:53.910Z,100836.97
2023-02-16T16:20:44.636Z,100840.31
2023-02-16T16:22:33.148Z,100847.44
2023-02-16T16:24:07.900Z,100846.94
2023-02-16T16:25:45.980Z,100837.91
2023-02-16T16:27:37.143Z,100845.88
2023-02-16T16:29:32.310Z,100836.00
2023-02-16T16:31:13.724Z,100838.94
2023-02-16T16:32:45.878Z,100838.56
2023-02-16T16:34:40.615Z,100840.84
2023-02-16T16:36:12.660Z,100843.63
2023-02-16T16:37:52.934Z,100831.44
2023-02-16T16:39:30.767Z,100839.88
2023-02-16T16:41:04.181Z,100836.44
2023-02-16T16:42:39.449Z,100840.16
2023-02-16T16:44:28.563Z,100837.56
2023-02-16T16:46:26.920Z,100834.47
2023-02-16T16:48:00.061Z,100841.56
2023-02-16T16:49:31.891Z,100830.34
2023-02-16T16:51:21.250Z,100826.47
2023-02-16T16:52:53.088Z,100829.44
2023-02-16T16:54:33.888Z,100829.13
2023-02-16T16:56:10.303Z,100829.47
2023-02-16T16:57:42.674Z,100825.31
2023-02-16T16:59:14.437Z,100830.19
2023-02-16T17:00:46.233Z,100830.44
2023-02-16T17:02:18.019Z,100831.72
2023-02-16T17:03:50.106Z,100832.06
2023-02-16T17:05:21.899Z,100832.31
2023-02-16T17:06:53.646Z,100829.13
2023-02-16T17:08:25.604Z,100827.75
2023-02-16T17:09:57.693Z,100836.13
2023-02-16T17:11:32.786Z,100833.78
2023-02-16T17:13:05.336Z,100840.44
2023-02-16T17:14:37.418Z,100835.50
2023-02-16T17:16:15.805Z,100843.94
2023-02-16T17:17:47.575Z,100833.56
2023-02-16T17:19:21.536Z,100838.41
2023-02-16T17:20:53.641Z,100837.06
2023-02-16T17:22:25.368Z,100836.63
2023-02-16T17:23:57.066Z,100835.25
2023-02-16T17:25:28.801Z,100839.03
2023-02-16T17:27:00.534Z,100834.00
2023-02-16T17:28:42.718Z,100835.09
2023-02-16T17:30:15.097Z,100837.16
2023-02-16T17:31:48.926Z,100829.34
2023-02-16T17:33:21.377Z,100837.63
2023-02-16T17:34:53.151Z,100825.28
2023-02-16T17:36:26.480Z,100825.38
2023-02-16T17:37:58.204Z,100824.56
2023-02-16T17:39:30.849Z,100816.72
2023-02-16T17:41:02.747Z,100824.84
2023-02-16T17:42:34.494Z,100827.56
2023-02-16T17:44:06.233Z,100824.03
2023-02-16T17:45:38.021Z,100823.97
2023-02-16T17:48:15.354Z,100826.81
2023-02-16T17:49:48.240Z,100824.03
2023-02-16T17:51:21.973Z,100830.25
2023-02-16T17:52:57.228Z,100826.81
2023-02-16T17:54:28.883Z,100830.41
2023-02-16T17:56:00.612Z,100836.59
2023-02-16T17:57:32.243Z,100833.06
2023-02-16T17:59:04.021Z,100834.03
2023-02-16T18:00:36.047Z,100834.88
2023-02-16T18:02:10.487Z,100834.03
2023-02-16T18:03:42.174Z,100828.69
2023-02-16T18:05:14.314Z,100831.25
2023-02-16T18:06:46.545Z,100841.88
2023-02-16T18:08:18.425Z,100832.06
2023-02-16T18:09:50.153Z,100840.00
2023-02-16T18:11:21.840Z,100837.34
2023-02-16T18:12:53.507Z,100839.06
2023-02-16T18:14:25.178Z,100845.16
2023-02-16T18:15:58.466Z,100836.22
2023-02-16T18:17:30.127Z,100842.34
2023-02-16T18:19:02.893Z,100837.88
2023-02-16T18:20:34.803Z,100842.28
2023-02-16T18:22:06.444Z,100849.34
2023-02-16T18:23:38.479Z,100841.16
2023-02-16T18:25:10.226Z,100850.00
2023-02-16T18:26:41.913Z,100849.13
2023-02-16T18:28:18.439Z,100860.59
2023-02-16T18:29:51.709Z,100849.91
2023-02-16T18:31:23.597Z,100853.28
2023-02-16T18:32:55.394Z,100850.44
2023-02-16T18:34:27.097Z,100855.72
2023-02-16T18:35:58.846Z,100847.53
2023-02-16T18:37:30.485Z,100858.16
2023-02-16T18:39:03.425Z,100857.97
2023-02-16T18:40:35.207Z,100852.47
2023-02-16T18:42:07.268Z,100854.13
2023-02-16T18:43:38.970Z,100850.34
2023-02-16T18:45:10.884Z,100844.94